Time;durP1;ratioP1;P1;durP2;ratioP2;P2;SDS_P1;SDS_P2;PMS_P1;PMS_P2;Temp;Humidity;BMP_temperature;BMP_pressure;BME280_temperature;BME280_humidity;BME280_pressure;Samples;Min_cycle;Max_cycle;Signal;HPM_P1;HPM_P2
2021/09/06 00:00:11;;;;;;;1.00;0.85;;;15.60;78.70;;;;;;4956454;28;20054;-79
2021/09/06 00:02:38;;;;;;;1.88;1.02;;;15.60;78.70;;;;;;4939438;28;20047;-80
2021/09/06 00:05:06;;;;;;;0.98;0.80;;;15.60;78.80;;;;;;4958470;28;20067;-79
2021/09/06 00:07:32;;;;;;;1.55;1.15;;;15.50;78.80;;;;;;4956737;28;20497;-80
2021/09/06 00:10:17;;;;;;;1.20;0.98;;;15.50;78.90;;;;;;4923186;28;20121;-80
2021/09/06 00:12:42;;;;;;;1.38;1.05;;;15.50;79.00;;;;;;4956023;28;20130;-80
2021/09/06 00:15:08;;;;;;;2.05;1.20;;;15.50;79.10;;;;;;4956219;28;20133;-81
2021/09/06 00:17:34;;;;;;;1.58;1.02;;;15.50;79.10;;;;;;4939887;28;20083;-80
2021/09/06 00:20:00;;;;;;;1.20;0.88;;;15.40;79.10;;;;;;4938956;28;20122;-80
2021/09/06 00:22:25;;;;;;;1.30;1.10;;;15.40;79.20;;;;;;4940052;28;20051;-80
2021/09/06 00:24:51;;;;;;;1.10;1.00;;;15.40;79.30;;;;;;4939090;29;20031;-80
2021/09/06 00:27:17;;;;;;;1.73;1.30;;;15.30;79.30;;;;;;4939753;29;20165;-79
2021/09/06 00:29:42;;;;;;;1.80;1.10;;;15.30;79.40;;;;;;4957499;28;20099;-80
2021/09/06 00:32:08;;;;;;;1.88;1.30;;;15.30;79.40;;;;;;4940454;29;20581;-79
2021/09/06 00:34:34;;;;;;;1.35;1.00;;;15.30;79.50;;;;;;4940821;29;20426;-80
2021/09/06 00:36:59;;;;;;;2.22;1.30;;;15.30;79.50;;;;;;4941148;28;20091;-80
2021/09/06 00:39:25;;;;;;;1.55;1.20;;;15.20;79.50;;;;;;4939992;29;20111;-80
2021/09/06 00:41:51;;;;;;;1.75;1.10;;;15.20;79.50;;;;;;4939293;28;20044;-80
2021/09/06 00:44:17;;;;;;;2.28;1.48;;;15.20;79.70;;;;;;4956328;28;20077;-81
2021/09/06 00:46:45;;;;;;;1.30;0.95;;;15.10;79.80;;;;;;4968038;28;20506;-80
2021/09/06 00:49:11;;;;;;;1.63;1.20;;;15.10;80.00;;;;;;4955989;28;20126;-81
2021/09/06 00:51:37;;;;;;;2.10;1.23;;;15.10;80.00;;;;;;4958514;28;20063;-80
2021/09/06 00:54:03;;;;;;;1.38;1.05;;;15.10;80.10;;;;;;4955551;28;20106;-80
2021/09/06 00:56:29;;;;;;;1.85;1.02;;;15.00;80.00;;;;;;4943595;28;20039;-80
2021/09/06 00:58:55;;;;;;;1.50;1.10;;;15.00;80.10;;;;;;4939313;28;20054;-80
2021/09/06 01:01:21;;;;;;;1.30;1.00;;;14.90;80.20;;;;;;4938712;28;20090;-80
2021/09/06 01:03:46;;;;;;;1.60;1.00;;;14.90;80.30;;;;;;4941597;28;20047;-80
2021/09/06 01:06:13;;;;;;;1.83;1.10;;;14.80;80.50;;;;;;4939177;29;20553;-80
2021/09/06 01:08:39;;;;;;;1.35;1.10;;;14.70;80.50;;;;;;4938760;29;20062;-80
2021/09/06 01:11:05;;;;;;;1.23;1.08;;;14.60;80.60;;;;;;4943172;29;20093;-80
2021/09/06 01:13:30;;;;;;;1.95;1.13;;;14.60;80.70;;;;;;4954887;28;20050;-80
2021/09/06 01:15:56;;;;;;;2.03;1.30;;;14.60;80.90;;;;;;4939488;29;20107;-80
2021/09/06 01:18:22;;;;;;;1.55;0.93;;;14.50;80.90;;;;;;4951826;28;20047;-80
2021/09/06 01:20:48;;;;;;;2.03;1.20;;;14.50;81.00;;;;;;4938098;28;20047;-79
2021/09/06 01:23:13;;;;;;;1.00;0.90;;;14.40;81.00;;;;;;4955666;28;20035;-80
2021/09/06 01:25:39;;;;;;;1.42;1.10;;;14.40;81.20;;;;;;4938685;28;20488;-79
2021/09/06 01:28:05;;;;;;;2.40;1.40;;;14.40;81.20;;;;;;4942366;28;20043;-80
2021/09/06 01:30:30;;;;;;;2.03;1.15;;;14.40;81.20;;;;;;4940632;29;20452;-81
2021/09/06 01:32:56;;;;;;;2.05;1.20;;;14.30;81.20;;;;;;4922348;28;20043;-80
2021/09/06 01:35:22;;;;;;;2.05;1.13;;;14.30;81.80;;;;;;4938693;28;20055;-80
2021/09/06 01:37:47;;;;;;;1.83;1.30;;;14.30;81.20;;;;;;4940139;28;20051;-80
2021/09/06 01:40:13;;;;;;;1.77;1.20;;;14.40;81.30;;;;;;4954654;28;20129;-80
2021/09/06 01:42:39;;;;;;;1.42;1.10;;;14.30;81.90;;;;;;4955415;28;20062;-80
2021/09/06 01:45:05;;;;;;;1.80;1.08;;;14.40;81.30;;;;;;4937837;28;20564;-80
2021/09/06 01:47:31;;;;;;;1.88;1.30;;;14.20;81.20;;;;;;4953565;28;20047;-80
2021/09/06 01:49:57;;;;;;;2.05;1.27;;;14.20;81.30;;;;;;4923859;28;20494;-80
2021/09/06 01:52:24;;;;;;;2.10;1.30;;;14.20;81.40;;;;;;4955221;28;20054;-80
2021/09/06 01:54:50;;;;;;;1.42;1.00;;;14.20;81.50;;;;;;4937698;28;20047;-80
2021/09/06 01:57:16;;;;;;;1.33;1.02;;;14.10;81.50;;;;;;4937440;28;20043;-80
2021/09/06 01:59:41;;;;;;;1.67;1.17;;;14.10;81.60;;;;;;4956458;28;20402;-80
2021/09/06 02:02:07;;;;;;;2.00;1.30;;;14.00;81.60;;;;;;4936963;28;20035;-81
2021/09/06 02:04:33;;;;;;;1.67;1.15;;;14.00;81.70;;;;;;4940293;28;20050;-81
2021/09/06 02:06:58;;;;;;;2.35;1.30;;;13.90;81.70;;;;;;4939900;28;20043;-80
2021/09/06 02:09:24;;;;;;;1.63;0.95;;;13.90;81.80;;;;;;4940050;28;20394;-81
2021/09/06 02:11:50;;;;;;;1.58;1.10;;;13.90;81.90;;;;;;4938039;28;20186;-81
2021/09/06 02:14:15;;;;;;;1.98;1.23;;;13.90;81.90;;;;;;4938055;29;20035;-80
2021/09/06 02:16:41;;;;;;;1.35;0.90;;;13.80;82.00;;;;;;4937582;29;20043;-79
2021/09/06 02:19:06;;;;;;;1.75;0.90;;;13.80;82.00;;;;;;4954523;28;20035;-80
2021/09/06 02:21:32;;;;;;;1.83;1.10;;;13.70;82.00;;;;;;4955498;28;20095;-80
2021/09/06 02:24:01;;;;;;;1.63;1.20;;;13.70;82.10;;;;;;4937583;29;20051;-80
2021/09/06 02:26:28;;;;;;;1.48;1.10;;;13.70;82.20;;;;;;4937598;28;20079;-80
2021/09/06 02:28:53;;;;;;;1.77;1.25;;;13.70;82.20;;;;;;4921355;28;20071;-80
2021/09/06 02:31:19;;;;;;;1.35;1.10;;;13.70;82.20;;;;;;4937046;28;20066;-80
2021/09/06 02:33:45;;;;;;;2.10;1.10;;;13.60;82.20;;;;;;4954428;28;20039;-80
2021/09/06 02:36:11;;;;;;;1.80;1.05;;;13.50;82.10;;;;;;4953115;28;20045;-80
2021/09/06 02:38:36;;;;;;;1.58;1.10;;;13.50;82.20;;;;;;4939067;28;20462;-80
2021/09/06 02:41:02;;;;;;;1.73;1.00;;;13.60;82.20;;;;;;4953826;28;20502;-79
2021/09/06 02:43:28;;;;;;;1.77;1.23;;;13.60;82.30;;;;;;4936930;29;20387;-80
2021/09/06 02:45:56;;;;;;;1.60;1.20;;;13.50;82.30;;;;;;4954233;28;20039;-81
2021/09/06 02:48:21;;;;;;;2.22;1.50;;;13.50;82.30;;;;;;4960387;28;20501;-80
2021/09/06 02:50:47;;;;;;;1.48;1.10;;;13.50;82.30;;;;;;4939175;28;20051;-80
2021/09/06 02:53:13;;;;;;;1.63;1.20;;;13.50;82.40;;;;;;4921437;28;20041;-81
2021/09/06 02:55:39;;;;;;;1.75;1.20;;;13.40;82.40;;;;;;4937139;28;20509;-81
2021/09/06 02:58:04;;;;;;;2.17;1.20;;;13.40;82.40;;;;;;4952958;28;20055;-81
2021/09/06 03:00:30;;;;;;;1.75;1.13;;;13.40;82.50;;;;;;4938764;28;20054;-81
2021/09/06 03:02:56;;;;;;;1.52;1.17;;;13.30;82.50;;;;;;4952859;28;20052;-81
2021/09/06 03:05:21;;;;;;;1.75;1.00;;;13.30;82.50;;;;;;4954303;28;20043;-81
2021/09/06 03:07:47;;;;;;;1.70;1.17;;;13.30;82.50;;;;;;4939087;29;20106;-81
2021/09/06 03:10:13;;;;;;;2.55;1.30;;;13.30;82.60;;;;;;4938709;28;20442;-81
2021/09/06 03:12:39;;;;;;;1.60;1.10;;;13.30;82.60;;;;;;4922532;28;20047;-80
2021/09/06 03:15:05;;;;;;;1.83;1.35;;;13.20;82.70;;;;;;4957775;28;20098;-80
2021/09/06 03:17:31;;;;;;;2.90;1.20;;;13.30;82.80;;;;;;4924813;28;20054;-80
2021/09/06 03:19:56;;;;;;;2.15;1.38;;;13.20;82.70;;;;;;4944143;28;20130;-80
2021/09/06 03:22:22;;;;;;;1.75;1.02;;;13.10;83.40;;;;;;4943055;28;20035;-81
2021/09/06 03:24:48;;;;;;;2.13;1.27;;;13.10;82.80;;;;;;4925061;28;20070;-81
2021/09/06 03:27:14;;;;;;;1.55;1.13;;;13.10;82.90;;;;;;4957207;28;20130;-81
2021/09/06 03:29:40;;;;;;;1.60;1.10;;;13.10;82.90;;;;;;4958549;28;20105;-81
2021/09/06 03:32:06;;;;;;;1.48;1.20;;;13.10;82.90;;;;;;4940522;28;20043;-81
2021/09/06 03:34:31;;;;;;;2.00;1.10;;;13.10;83.00;;;;;;4957948;28;20111;-81
2021/09/06 03:36:57;;;;;;;1.77;0.90;;;13.00;83.00;;;;;;4957623;28;20098;-80
2021/09/06 03:39:23;;;;;;;1.73;1.15;;;13.00;83.00;;;;;;4958300;28;20590;-81
2021/09/06 03:41:48;;;;;;;1.35;0.90;;;13.00;83.00;;;;;;4940875;28;20050;-81
2021/09/06 03:44:14;;;;;;;1.70;1.23;;;13.00;83.00;;;;;;4972439;28;20117;-81
2021/09/06 03:46:40;;;;;;;2.50;1.30;;;13.00;83.00;;;;;;4941645;29;20043;-81
2021/09/06 03:49:05;;;;;;;1.98;1.10;;;13.00;83.10;;;;;;4940589;28;20477;-81
2021/09/06 03:51:31;;;;;;;2.05;1.20;;;12.90;83.10;;;;;;4940143;28;20051;-81
2021/09/06 03:53:57;;;;;;;2.33;1.30;;;12.90;83.10;;;;;;4940426;29;20367;-81
2021/09/06 03:56:22;;;;;;;1.65;1.10;;;12.90;83.20;;;;;;4957461;28;20406;-81
2021/09/06 03:58:48;;;;;;;1.35;1.17;;;12.90;83.20;;;;;;4940373;28;20047;-81
2021/09/06 04:01:14;;;;;;;1.60;1.10;;;12.80;83.20;;;;;;4940473;28;20458;-81
2021/09/06 04:03:40;;;;;;;1.75;1.23;;;12.90;83.20;;;;;;4943883;29;20510;-81
2021/09/06 04:06:06;;;;;;;2.03;1.30;;;12.80;83.20;;;;;;4956097;28;20092;-81
2021/09/06 04:08:33;;;;;;;2.20;1.30;;;12.80;83.20;;;;;;4939838;28;20486;-81
2021/09/06 04:10:58;;;;;;;1.95;1.35;;;12.90;83.30;;;;;;4939596;28;20560;-81
2021/09/06 04:13:24;;;;;;;2.85;1.50;;;12.80;83.20;;;;;;4943403;28;20047;-81
2021/09/06 04:15:50;;;;;;;2.28;1.48;;;12.70;83.20;;;;;;4939728;28;20044;-81
2021/09/06 04:18:16;;;;;;;2.40;1.52;;;12.80;83.40;;;;;;4939865;28;20051;-81
2021/09/06 04:20:42;;;;;;;2.28;1.40;;;12.70;83.40;;;;;;4940244;28;20086;-81
2021/09/06 04:23:08;;;;;;;2.17;1.30;;;12.60;83.30;;;;;;4956500;28;20057;-81
2021/09/06 04:25:34;;;;;;;1.65;1.25;;;12.70;83.40;;;;;;4940697;28;20106;-81
2021/09/06 04:27:59;;;;;;;2.58;1.30;;;12.70;83.40;;;;;;4941740;28;20047;-81
2021/09/06 04:30:25;;;;;;;2.05;1.30;;;12.70;83.40;;;;;;4957411;28;20520;-82
2021/09/06 04:32:51;;;;;;;1.83;1.27;;;12.70;83.50;;;;;;4957771;28;20409;-81
2021/09/06 04:35:16;;;;;;;1.92;1.27;;;12.70;83.60;;;;;;4959007;28;20082;-81
2021/09/06 04:37:42;;;;;;;1.50;1.00;;;12.60;83.50;;;;;;4942645;28;20102;-82
2021/09/06 04:40:09;;;;;;;2.47;1.20;;;12.60;83.50;;;;;;4945210;28;20075;-82
2021/09/06 04:42:35;;;;;;;1.67;1.20;;;12.60;83.50;;;;;;4945835;28;20039;-81
2021/09/06 04:45:00;;;;;;;2.17;1.30;;;12.50;83.50;;;;;;4947936;28;20031;-82
2021/09/06 04:47:26;;;;;;;2.05;1.35;;;12.60;83.50;;;;;;4949196;28;20067;-82
2021/09/06 04:49:52;;;;;;;1.77;1.20;;;12.70;83.70;;;;;;4963548;28;20046;-82
2021/09/06 04:52:18;;;;;;;3.05;1.27;;;12.60;83.70;;;;;;4947020;28;20039;-81
2021/09/06 04:54:43;;;;;;;1.20;0.90;;;12.60;83.70;;;;;;4956031;28;20051;-81
2021/09/06 04:57:09;;;;;;;2.45;1.27;;;12.50;83.70;;;;;;4952706;28;20050;-82
2021/09/06 04:59:35;;;;;;;2.55;1.30;;;12.60;83.70;;;;;;4947436;28;20039;-82
2021/09/06 05:02:00;;;;;;;1.60;1.10;;;12.50;83.70;;;;;;4947356;28;20097;-82
2021/09/06 05:04:26;;;;;;;2.58;1.20;;;12.50;83.70;;;;;;4968085;28;20038;-84
2021/09/06 05:06:54;;;;;;;2.28;1.40;;;12.60;83.90;;;;;;4975765;28;20035;-82
2021/09/06 05:09:20;;;;;;;1.90;1.15;;;12.60;83.90;;;;;;4954790;29;20039;-82
2021/09/06 05:11:46;;;;;;;2.00;1.40;;;12.40;83.70;;;;;;4970142;28;20139;-82
2021/09/06 05:14:12;;;;;;;2.33;1.27;;;12.50;83.80;;;;;;4947975;28;20050;-82
2021/09/06 05:16:37;;;;;;;2.75;1.30;;;12.50;83.80;;;;;;4943683;29;20046;-82
2021/09/06 05:19:03;;;;;;;2.15;1.40;;;12.40;83.70;;;;;;4941112;28;20062;-83
2021/09/06 05:21:29;;;;;;;2.33;1.50;;;12.40;83.70;;;;;;4940445;28;20043;-82
2021/09/06 05:23:55;;;;;;;2.17;1.30;;;12.50;83.70;;;;;;4941901;29;20202;-82
2021/09/06 05:26:20;;;;;;;1.80;1.30;;;12.50;83.70;;;;;;4944234;28;20166;-82
2021/09/06 05:28:46;;;;;;;2.10;1.30;;;12.50;83.70;;;;;;4944531;28;20469;-82
2021/09/06 05:31:14;;;;;;;1.60;1.13;;;12.50;83.70;;;;;;4945545;28;20078;-83
2021/09/06 05:33:39;;;;;;;1.55;1.20;;;12.50;83.70;;;;;;4947210;28;20039;-83
2021/09/06 05:36:06;;;;;;;2.92;1.48;;;12.50;83.70;;;;;;4946431;28;20035;-83
2021/09/06 05:38:33;;;;;;;1.98;1.17;;;12.50;83.70;;;;;;4964462;28;20051;-83
2021/09/06 05:40:59;;;;;;;1.65;1.15;;;12.40;83.70;;;;;;4957839;28;20478;-83
2021/09/06 05:43:25;;;;;;;2.20;1.40;;;12.50;83.70;;;;;;4938935;28;20448;-83
2021/09/06 05:45:50;;;;;;;1.55;0.90;;;12.60;83.70;;;;;;4938660;28;20046;-84
2021/09/06 05:48:17;;;;;;;1.58;1.13;;;12.60;83.70;;;;;;4958990;28;20125;-83
2021/09/06 05:50:43;;;;;;;2.92;1.27;;;12.60;83.60;;;;;;4955482;28;20102;-83
2021/09/06 05:53:09;;;;;;;2.47;1.48;;;12.70;83.60;;;;;;4940784;28;20442;-83
2021/09/06 05:55:35;;;;;;;2.45;1.30;;;12.80;83.60;;;;;;4954188;28;20039;-83
2021/09/06 05:58:00;;;;;;;2.05;1.10;;;12.90;83.60;;;;;;4938278;28;20139;-84
2021/09/06 06:00:26;;;;;;;1.58;1.17;;;12.90;83.50;;;;;;4938454;28;20106;-83
2021/09/06 06:02:52;;;;;;;2.83;1.27;;;13.00;83.30;;;;;;4924914;28;20477;-80
2021/09/06 06:05:18;;;;;;;2.22;1.42;;;13.10;83.20;;;;;;4938380;28;20043;-80
2021/09/06 06:07:43;;;;;;;2.65;1.30;;;13.20;83.10;;;;;;4942009;28;20137;-80
2021/09/06 06:10:10;;;;;;;1.77;1.27;;;13.20;83.10;;;;;;4940568;29;20043;-80
2021/09/06 06:12:36;;;;;;;1.55;1.10;;;13.20;83.10;;;;;;4938275;28;20047;-80
2021/09/06 06:15:02;;;;;;;1.95;1.20;;;13.20;83.10;;;;;;4923866;28;20054;-80
2021/09/06 06:17:27;;;;;;;1.92;1.25;;;13.20;83.10;;;;;;4938171;28;20039;-80
2021/09/06 06:19:53;;;;;;;2.05;1.20;;;13.30;83.10;;;;;;4937479;28;20039;-80
2021/09/06 06:22:19;;;;;;;1.95;1.30;;;13.40;83.10;;;;;;4937732;28;20043;-80
2021/09/06 06:24:45;;;;;;;2.13;1.30;;;13.40;83.00;;;;;;4955027;28;20031;-80
2021/09/06 06:27:11;;;;;;;2.72;1.42;;;13.50;83.10;;;;;;4937944;28;20844;-81
2021/09/06 06:29:36;;;;;;;2.53;1.52;;;13.50;83.10;;;;;;4937806;28;20047;-80
2021/09/06 06:32:03;;;;;;;1.92;1.13;;;13.60;83.10;;;;;;4937358;28;20047;-80
2021/09/06 06:34:28;;;;;;;2.33;1.30;;;13.60;82.90;;;;;;4951873;28;20122;-80
2021/09/06 06:36:54;;;;;;;2.67;1.40;;;13.80;82.80;;;;;;4953106;28;20067;-81
2021/09/06 06:39:20;;;;;;;2.33;1.48;;;13.90;82.80;;;;;;4960314;28;20078;-80
2021/09/06 06:41:46;;;;;;;2.70;1.20;;;13.90;82.70;;;;;;4954704;28;20051;-80
2021/09/06 06:44:13;;;;;;;2.92;1.60;;;14.10;82.70;;;;;;4938056;29;20508;-80
2021/09/06 06:46:39;;;;;;;2.53;1.60;;;14.20;82.70;;;;;;4936935;29;20050;-80
2021/09/06 06:49:05;;;;;;;3.10;1.80;;;14.20;82.60;;;;;;4938020;28;20039;-81
2021/09/06 06:51:32;;;;;;;3.58;1.65;;;14.30;82.70;;;;;;4937552;28;20038;-84
2021/09/06 06:53:57;;;;;;;2.88;1.58;;;14.20;82.70;;;;;;4938761;28;20137;-83
2021/09/06 06:56:23;;;;;;;1.88;1.15;;;14.40;82.70;;;;;;4957413;28;20560;-83
2021/09/06 06:58:49;;;;;;;3.40;1.77;;;14.40;82.50;;;;;;4940380;28;20047;-83
2021/09/06 07:01:14;;;;;;;2.72;1.42;;;14.40;82.50;;;;;;4957753;28;20402;-83
2021/09/06 07:03:40;;;;;;;3.22;1.70;;;14.50;82.50;;;;;;4955026;28;20047;-84
2021/09/06 07:06:06;;;;;;;2.88;1.52;;;14.60;82.60;;;;;;4940246;28;20095;-84
2021/09/06 07:08:31;;;;;;;2.60;1.30;;;14.70;82.70;;;;;;4942476;28;20039;-84
2021/09/06 07:10:58;;;;;;;2.72;1.60;;;14.80;82.70;;;;;;4941008;28;20067;-84
2021/09/06 07:13:23;;;;;;;3.22;1.60;;;14.80;82.60;;;;;;4956619;28;20051;-86
2021/09/06 07:15:50;;;;;;;2.42;1.52;;;14.80;82.60;;;;;;4942714;29;20062;-84
2021/09/06 07:18:19;;;;;;;2.65;1.48;;;14.90;82.60;;;;;;4957279;28;20098;-88
2021/09/06 07:20:45;;;;;;;2.90;1.70;;;14.90;82.50;;;;;;4886413;29;20084;-85
2021/09/06 07:23:13;;;;;;;2.10;1.38;;;15.00;82.50;;;;;;4888294;29;20036;-85
2021/09/06 07:25:39;;;;;;;3.13;1.60;;;15.10;82.50;;;;;;4869810;29;20104;-86
2021/09/06 07:28:22;;;;;;;2.25;1.38;;;15.20;82.50;;;;;;4855035;29;20090;-87
2021/09/06 07:30:48;;;;;;;1.88;1.30;;;15.20;82.50;;;;;;4870063;29;20075;-86
2021/09/06 07:33:14;;;;;;;2.30;1.40;;;15.40;82.40;;;;;;4869307;29;20053;-85
2021/09/06 07:35:40;;;;;;;2.55;1.60;;;15.40;82.30;;;;;;4869149;29;20040;-80
2021/09/06 07:38:05;;;;;;;2.30;1.63;;;15.50;82.30;;;;;;4898497;29;20533;-80
2021/09/06 07:40:31;;;;;;;3.05;1.77;;;15.50;82.20;;;;;;4863902;29;20116;-80
2021/09/06 07:42:57;;;;;;;2.45;1.67;;;15.70;82.20;;;;;;4879518;29;20037;-81
2021/09/06 07:45:22;;;;;;;2.53;1.58;;;15.70;82.00;;;;;;4863862;29;20448;-81
2021/09/06 07:47:48;;;;;;;3.40;1.92;;;15.80;81.90;;;;;;4848080;29;20049;-80
2021/09/06 07:50:16;;;;;;;3.00;2.03;;;15.90;81.90;;;;;;4894835;29;20104;-81
2021/09/06 07:52:41;;;;;;;3.10;1.70;;;16.00;81.90;;;;;;4902750;28;20050;-80
2021/09/06 07:55:08;;;;;;;2.45;1.63;;;16.10;81.80;;;;;;4936353;28;20047;-80
2021/09/06 07:57:34;;;;;;;2.42;1.80;;;16.20;81.70;;;;;;4936410;29;20517;-81
2021/09/06 08:00:00;;;;;;;2.63;1.70;;;16.30;81.60;;;;;;4923625;28;20047;-79
2021/09/06 08:02:25;;;;;;;2.75;1.60;;;16.40;81.50;;;;;;4940179;28;20050;-85
2021/09/06 08:04:51;;;;;;;2.28;1.45;;;16.50;81.50;;;;;;4960455;28;20039;-80
2021/09/06 08:07:17;;;;;;;3.20;1.75;;;16.60;81.30;;;;;;4958345;28;20137;-81
2021/09/06 08:09:43;;;;;;;2.25;1.50;;;16.80;81.90;;;;;;4939871;28;20498;-82
2021/09/06 08:12:09;;;;;;;2.85;1.80;;;17.00;81.10;;;;;;4958587;28;20465;-79
2021/09/06 08:14:38;;;;;;;2.60;1.50;;;17.10;80.90;;;;;;4961614;28;20046;-80
2021/09/06 08:17:04;;;;;;;3.35;2.08;;;17.20;80.70;;;;;;4941229;28;20094;-79
2021/09/06 08:19:29;;;;;;;2.72;1.70;;;17.40;80.60;;;;;;4960675;28;20047;-84
2021/09/06 08:21:56;;;;;;;3.17;1.80;;;17.50;80.40;;;;;;4925340;29;20438;-85
2021/09/06 08:28:45;;;;;;;2.25;1.52;;;17.80;80.10;;;;;;4907885;29;20080;-90
2021/09/06 08:31:11;;;;;;;2.85;1.70;;;17.90;79.90;;;;;;4898450;29;20040;-83
2021/09/06 08:33:37;;;;;;;1.65;1.25;;;18.10;79.80;;;;;;4898600;29;20085;-84
2021/09/06 08:36:46;;;;;;;2.63;1.35;;;18.30;79.80;;;;;;4866822;29;20051;-89
2021/09/06 08:39:11;;;;;;;2.40;1.55;;;18.30;79.60;;;;;;4844921;29;20053;-83
2021/09/06 08:41:37;;;;;;;1.65;1.30;;;18.50;79.60;;;;;;4844966;29;20038;-84
2021/09/06 08:44:04;;;;;;;2.22;1.38;;;18.60;79.60;;;;;;4860927;29;20053;-86
2021/09/06 08:46:30;;;;;;;2.35;1.50;;;18.70;79.60;;;;;;4845485;29;20081;-85
2021/09/06 08:48:58;;;;;;;2.60;1.77;;;18.70;79.60;;;;;;4828804;29;20054;-84
2021/09/06 08:51:27;;;;;;;2.58;1.50;;;18.80;79.60;;;;;;4809800;29;20081;-85
2021/09/06 08:53:53;;;;;;;2.13;1.20;;;18.90;79.60;;;;;;4804887;29;20066;-86
2021/09/06 08:56:21;;;;;;;1.75;1.25;;;18.90;79.60;;;;;;4789725;29;20552;-82
2021/09/06 08:58:46;;;;;;;2.30;1.30;;;19.00;79.60;;;;;;4771730;30;20150;-82
2021/09/06 09:01:12;;;;;;;2.55;1.60;;;19.00;79.50;;;;;;4790793;29;20055;-82
2021/09/06 09:03:38;;;;;;;2.85;1.40;;;19.10;79.50;;;;;;4806165;29;20057;-82
2021/09/06 09:06:05;;;;;;;2.63;1.60;;;19.20;79.50;;;;;;4807651;29;20042;-84
2021/09/06 09:08:32;;;;;;;2.22;1.45;;;19.40;79.30;;;;;;4824296;29;20136;-84
2021/09/06 09:11:00;;;;;;;2.35;1.45;;;19.50;79.10;;;;;;4822024;29;20054;-85
2021/09/06 09:13:30;;;;;;;2.30;1.30;;;19.60;79.00;;;;;;4809578;29;20114;-85
2021/09/06 09:15:56;;;;;;;2.35;1.38;;;19.60;78.90;;;;;;4808061;29;20050;-83
2021/09/06 09:18:24;;;;;;;2.08;1.40;;;19.70;78.90;;;;;;4822288;29;20118;-82
2021/09/06 09:20:58;;;;;;;2.88;1.75;;;19.80;78.80;;;;;;4858113;29;20049;-82
2021/09/06 09:23:35;;;;;;;2.17;1.30;;;19.80;78.80;;;;;;4880394;29;20040;-84
2021/09/06 09:26:02;;;;;;;2.00;1.40;;;19.80;78.80;;;;;;4937169;28;20122;-83
2021/09/06 09:28:29;;;;;;;1.83;1.23;;;19.90;78.80;;;;;;4965825;28;20057;-83
2021/09/06 09:31:08;;;;;;;2.85;1.73;;;19.90;78.70;;;;;;4940296;28;20039;-83
2021/09/06 09:33:43;;;;;;;2.47;1.50;;;19.90;78.60;;;;;;4955822;28;20047;-82
2021/09/06 09:36:09;;;;;;;2.83;1.60;;;20.00;78.60;;;;;;4955780;28;20481;-83
2021/09/06 09:38:37;;;;;;;4.03;1.65;;;20.00;78.60;;;;;;4957364;28;20043;-83
2021/09/06 09:41:12;;;;;;;4.40;2.00;;;20.10;78.40;;;;;;4943080;28;20047;-83
2021/09/06 09:43:38;;;;;;;2.33;1.58;;;20.10;78.40;;;;;;4959723;28;20039;-82
2021/09/06 09:46:04;;;;;;;3.15;1.73;;;20.10;78.40;;;;;;4938553;28;20058;-80
2021/09/06 09:48:29;;;;;;;3.05;2.05;;;20.20;78.30;;;;;;4938444;29;20047;-81
2021/09/06 09:50:57;;;;;;;2.25;1.60;;;20.20;78.10;;;;;;4940328;28;20375;-81
2021/09/06 09:53:23;;;;;;;3.00;1.90;;;20.20;78.10;;;;;;4938269;28;20039;-80
2021/09/06 09:55:49;;;;;;;2.55;1.73;;;20.20;77.90;;;;;;4955675;28;20046;-82
2021/09/06 09:58:16;;;;;;;2.95;1.85;;;20.30;77.90;;;;;;4953652;28;20478;-82
2021/09/06 10:00:43;;;;;;;2.13;1.60;;;20.20;77.70;;;;;;4939261;28;20133;-82
2021/09/06 10:03:10;;;;;;;1.92;1.52;;;20.30;77.80;;;;;;4957850;28;20181;-80
2021/09/06 10:05:47;;;;;;;1.83;1.35;;;20.20;77.70;;;;;;4941615;28;20043;-86
2021/09/06 10:08:16;;;;;;;2.47;1.50;;;20.20;77.80;;;;;;4923183;28;20122;-86
2021/09/06 10:10:42;;;;;;;1.83;1.50;;;20.30;77.80;;;;;;4942807;28;20497;-86
2021/09/06 10:13:12;;;;;;;2.08;1.33;;;20.30;77.70;;;;;;4956013;28;20506;-85
2021/09/06 10:15:42;;;;;;;1.70;1.40;;;20.30;77.70;;;;;;4938077;28;20051;-85
2021/09/06 10:18:18;;;;;;;2.03;1.40;;;20.30;77.50;;;;;;4938054;28;20303;-85
2021/09/06 10:20:44;;;;;;;2.15;1.40;;;20.40;77.50;;;;;;4938250;28;20103;-82
2021/09/06 10:23:12;;;;;;;1.83;1.20;;;20.40;77.40;;;;;;4953889;28;20047;-82
2021/09/06 10:25:40;;;;;;;1.95;1.35;;;20.40;77.20;;;;;;4955258;28;20373;-83
2021/09/06 10:28:08;;;;;;;2.85;1.60;;;20.40;77.10;;;;;;4938070;28;20051;-83
2021/09/06 10:30:43;;;;;;;2.00;1.45;;;20.50;77.10;;;;;;4956286;28;20093;-81
2021/09/06 10:33:33;;;;;;;2.17;1.40;;;20.50;76.80;;;;;;4938610;28;20043;-81
2021/09/06 10:36:11;;;;;;;1.85;1.40;;;20.60;76.70;;;;;;4957498;28;20342;-81
2021/09/06 10:38:46;;;;;;;2.05;1.20;;;20.60;76.60;;;;;;4954208;28;20066;-81
2021/09/06 10:41:15;;;;;;;2.10;1.30;;;20.70;76.60;;;;;;4954542;28;20185;-81
2021/09/06 10:43:44;;;;;;;2.13;1.52;;;20.70;76.50;;;;;;4954570;28;20043;-79
2021/09/06 10:46:10;;;;;;;2.65;1.60;;;20.80;76.20;;;;;;4953031;28;20078;-79
2021/09/06 10:48:36;;;;;;;2.42;1.70;;;20.90;76.00;;;;;;4937370;28;20047;-80
2021/09/06 10:51:03;;;;;;;2.78;1.70;;;21.00;75.80;;;;;;4954817;28;20047;-80
2021/09/06 10:53:29;;;;;;;2.28;1.50;;;21.00;75.50;;;;;;4938063;29;20066;-80
2021/09/06 10:55:57;;;;;;;2.80;1.70;;;21.10;75.30;;;;;;4938324;28;20490;-81
2021/09/06 10:58:26;;;;;;;2.03;1.40;;;21.10;75.10;;;;;;4940019;28;20054;-83
2021/09/06 11:00:54;;;;;;;2.05;1.50;;;21.20;75.00;;;;;;4955962;28;20045;-83
2021/09/06 11:03:21;;;;;;;2.22;1.23;;;21.20;74.80;;;;;;4956476;28;20506;-86
2021/09/06 11:05:58;;;;;;;1.63;1.20;;;21.30;74.60;;;;;;4934361;28;20039;-88
2021/09/06 11:08:28;;;;;;;1.88;1.48;;;21.20;74.30;;;;;;4924081;28;20051;-84
2021/09/06 11:11:15;;;;;;;1.77;1.40;;;21.30;74.20;;;;;;4939164;28;20494;-86
2021/09/06 11:17:30;;;;;;;0.95;0.77;;;21.40;74.10;;;;;;4767620;30;20608;-83
2021/09/06 11:19:57;;;;;;;1.52;1.10;;;21.40;74.00;;;;;;4768866;30;20078;-84
2021/09/06 11:22:32;;;;;;;1.38;1.00;;;21.40;73.90;;;;;;4752263;30;20093;-85
2021/09/06 11:25:01;;;;;;;1.77;1.10;;;21.50;73.80;;;;;;4769846;30;20132;-84
2021/09/06 11:27:31;;;;;;;2.08;1.38;;;21.60;73.70;;;;;;4768925;30;20044;-86
2021/09/06 11:29:58;;;;;;;2.13;1.20;;;21.60;73.60;;;;;;4769389;30;20499;-84
2021/09/06 11:32:24;;;;;;;2.38;1.30;;;21.60;73.40;;;;;;4768517;30;20056;-85
2021/09/06 11:35:02;;;;;;;1.52;1.23;;;21.60;73.20;;;;;;4755053;30;20538;-84
2021/09/06 11:37:29;;;;;;;1.23;0.98;;;21.60;73.10;;;;;;4762533;30;20059;-85
2021/09/06 11:39:55;;;;;;;1.35;1.00;;;21.60;73.00;;;;;;4736466;30;20044;-85
2021/09/06 11:42:21;;;;;;;1.65;1.08;;;21.70;72.90;;;;;;4750607;30;20139;-82
2021/09/06 11:44:47;;;;;;;1.95;1.20;;;21.70;72.90;;;;;;4752556;30;20450;-82
2021/09/06 11:47:14;;;;;;;1.38;1.20;;;21.70;72.90;;;;;;4753294;30;20048;-82
2021/09/06 11:49:50;;;;;;;2.00;1.40;;;21.80;72.70;;;;;;4768361;30;20074;-82
2021/09/06 11:52:18;;;;;;;1.85;1.23;;;22.00;72.50;;;;;;4792522;29;20038;-82
2021/09/06 11:54:45;;;;;;;2.50;1.60;;;22.10;72.20;;;;;;4903283;29;20040;-81
2021/09/06 11:57:12;;;;;;;1.80;1.40;;;22.30;71.80;;;;;;4916311;29;20078;-82
2021/09/06 11:59:39;;;;;;;2.25;1.50;;;22.40;71.60;;;;;;4937537;28;20198;-81
2021/09/06 12:02:12;;;;;;;1.77;1.38;;;22.50;71.20;;;;;;4940161;29;20055;-82
2021/09/06 12:04:38;;;;;;;2.33;1.70;;;22.70;71.10;;;;;;4955717;28;20062;-82
2021/09/06 12:07:16;;;;;;;2.42;1.65;;;22.70;70.90;;;;;;4924606;28;20494;-83
2021/09/06 12:09:42;;;;;;;2.28;1.55;;;22.70;70.60;;;;;;4960530;28;20075;-82
2021/09/06 12:12:39;;;;;;;2.92;1.70;;;22.80;70.60;;;;;;4939903;28;20490;-85
2021/09/06 12:15:06;;;;;;;2.33;1.65;;;22.90;70.50;;;;;;4932197;29;20459;-81
2021/09/06 12:17:35;;;;;;;1.85;1.40;;;22.90;70.30;;;;;;4943387;29;20494;-81
2021/09/06 12:20:07;;;;;;;2.00;1.50;;;23.00;70.10;;;;;;4939138;29;20075;-82
2021/09/06 12:22:34;;;;;;;2.10;1.52;;;23.10;69.80;;;;;;4956469;29;20084;-83
2021/09/06 12:25:08;;;;;;;2.13;1.42;;;23.20;69.80;;;;;;4947660;28;20052;-82
2021/09/06 12:27:35;;;;;;;1.67;1.25;;;23.20;69.70;;;;;;4956366;29;20049;-79
2021/09/06 12:30:01;;;;;;;2.10;1.38;;;23.30;69.70;;;;;;4960011;29;20047;-83
2021/09/06 12:32:27;;;;;;;1.88;1.38;;;23.40;69.60;;;;;;4941188;29;20046;-81
2021/09/06 12:34:54;;;;;;;2.22;1.40;;;23.30;69.50;;;;;;4951554;29;20107;-83
2021/09/06 12:37:23;;;;;;;2.10;1.50;;;23.40;69.50;;;;;;4929002;29;20119;-82
2021/09/06 12:39:52;;;;;;;1.55;1.25;;;23.50;69.30;;;;;;4928270;29;20035;-87
2021/09/06 12:42:25;;;;;;;1.70;1.40;;;23.60;69.00;;;;;;4937739;29;20497;-86
2021/09/06 12:44:50;;;;;;;1.90;1.38;;;23.60;69.00;;;;;;4920911;29;20131;-79
2021/09/06 12:47:16;;;;;;;2.17;1.60;;;23.60;68.90;;;;;;4938741;28;20118;-79
2021/09/06 12:49:42;;;;;;;2.08;1.48;;;23.70;68.80;;;;;;4960098;28;20494;-79
2021/09/06 12:52:10;;;;;;;2.20;1.52;;;23.90;68.70;;;;;;4958635;28;20039;-84
2021/09/06 12:54:36;;;;;;;3.33;1.88;;;23.80;68.50;;;;;;4944706;28;20046;-81